Hialeah Lakes, Florida
Current Conditions -  °F | °C
As of 9:53 PM on Friday 19 Dec 2014 (Local Time) from KOPF Reporting Station
Clear Clear  
Wind Chill: 64°   Ceiling: Unl
Heat Index: 64°   Visibility: 10mi
Dew Point: 59°   Wind: 5mph
Humidity: 84%   Direction: 130°SE
Pressure: 30.08"   Gusts: NA
Location:  25.9357°N, 80.3817°W
Report Text: KOPF 200253Z AUTO 13004KT 10SM CLR 18/15 A3008 RMK AO2 SLP186 T01780150 50005
Loading
Personal Weather Stations






























Interactive Weather Map New forecast layout! Learn more

10-Day Weather Forecast

Advertisements
Track Severe Weather on mobile